• Join FlightAware (Why Join?)
  • Login
  • US Flag 
02:09PM EDT


 

Airport Tracker/Info


-or-


 

Live Flight TrackerFlight Track Log ✈ DAL3982 ✈ 19-Jun-2013 ✈ KGSP - KDTW

Flight Track Log - Related Links

Times and Time Zones

All times are in EDT time to prevent confusion due to time zone crossing. See the DAL3982 flight status page for this flight to view local times or setup timezone preferences in your user account.

Time Position Orientation Groundspeed Altitude Reporting Facility
EDT Latitude Longitude Course Direction KTS MPH feet Rate Location/Type
08:05AM 35.0006 -82.1497 North 235 270 5,100  Level Atlanta Center
08:06AM 35.1134 -81.9167 North  Level FlightAware Approximate
08:06AM 35.0644 -82.1000 32° Northeast 253 291 7,400  Level Atlanta Center
08:07AM 35.2042 -81.9333 North  Level FlightAware Approximate
08:07AM 35.1303 -82.0400 37° Northeast 274 315 10,000  Level Atlanta Center
08:08AM 35.2969 -81.9333 360° North  Level FlightAware Approximate
08:08AM 35.2022 -81.9772 35° Northeast 299 344 11,800  Level Atlanta Center
08:09AM 35.3896 -81.9333 North  Level FlightAware Approximate
08:09AM 35.2897 -81.9650 North 307 353 13,800  Level Atlanta Center
08:10AM 35.4822 -81.9333 North  Level FlightAware Approximate
08:10AM 35.3697 -82.0011 340° North 301 346 15,000  Level Atlanta Center
08:11AM 35.4644 -82.0500 337° Northwest 351 404 16,300 1,320 Climbing Atlanta Center
08:12AM 35.5611 -82.1011 337° Northwest 367 422 17,700 1,200 Climbing Atlanta Center
08:13AM 35.6558 -82.1550 335° Northwest 373 429 18,700 960 Climbing Atlanta Center
08:14AM 35.7586 -82.1989 341° North 387 445 19,700 960 Climbing Atlanta Center
08:15AM 35.8800 -82.2192 352° North 387 445 20,700 900 Climbing Atlanta Center
08:16AM 35.9867 -82.2322 354° North 398 458 21,600 660 Climbing Atlanta Center
08:17AM 36.0972 -82.2450 355° North 398 458 22,100 480 Climbing Atlanta Center
08:18AM 36.2203 -82.2450 360° North 419 482 22,600 480 Climbing Atlanta Center
08:19AM 36.3411 -82.2344 North 432 497 23,100 480 Climbing Atlanta Center
08:20AM 36.4661 -82.2264 North 447 514 23,600 660 Climbing Atlanta Center
08:22AM 36.7569 -82.2008 North 445 512 25,400 660 Climbing Indianapolis Center
08:23AM 36.8806 -82.1894 North 444 511 26,000 240 Climbing Indianapolis Center
08:24AM 37.0053 -82.1797 North 447 514 26,000  Level Indianapolis Center
08:25AM 37.1331 -82.1697 North 458 527 26,000  Level Indianapolis Center
08:26AM 37.2606 -82.1586 North 461 531 26,000  Level Indianapolis Center
08:27AM 37.4103 -82.1456 North 461 531 26,000  Level Indianapolis Center
08:28AM 37.5386 -82.1353 North 462 532 26,000  Level Indianapolis Center
08:29AM 37.6650 -82.1225 North 455 524 26,000  Level Indianapolis Center
08:30AM 37.7939 -82.1117 North 461 531 26,000  Level Indianapolis Center
08:31AM 37.9322 -82.1156 359° North 459 528 26,000  Level Indianapolis Center
08:32AM 38.0600 -82.1208 358° North 458 527 26,000  Level Indianapolis Center
08:33AM 38.1889 -82.1250 359° North 459 528 26,000  Level Indianapolis Center
08:34AM 38.3167 -82.1294 358° North 457 526 26,000  Level Indianapolis Center
08:35AM 38.4444 -82.1339 358° North 457 526 26,000  Level Indianapolis Center
08:36AM 38.5725 -82.1389 358° North 455 524 26,000  Level Indianapolis Center
08:37AM 38.6997 -82.1439 358° North 452 520 26,000  Level Indianapolis Center
08:38AM 38.8514 -82.1497 358° North 450 518 26,000  Level Indianapolis Center
08:40AM 38.9758 -82.1539 359° North 445 512 26,000  Level Indianapolis Center
08:41AM 39.1011 -82.1583 358° North 446 513 26,000  Level Indianapolis Center
08:42AM 39.2258 -82.1622 359° North 447 514 26,000  Level Indianapolis Center
08:43AM 39.3503 -82.1656 359° North 444 511 26,000  Level Indianapolis Center
08:44AM 39.4789 -82.1708 358° North 442 509 26,000  Level Indianapolis Center
08:45AM 39.6033 -82.1750 359° North 443 510 26,000  Level Indianapolis Center
08:46AM 39.7261 -82.1811 358° North 440 506 26,000  Level Indianapolis Center
08:47AM 39.8469 -82.2014 353° North 434 499 26,000  Level Indianapolis Center
08:48AM 39.9875 -82.2239 353° North 434 499 26,000  Level Indianapolis Center
08:49AM 40.1086 -82.2447 353° North 436 502 26,000  Level Indianapolis Center
08:50AM 40.2294 -82.2636 353° North 435 501 26,000  Level Indianapolis Center
08:51AM 40.3408 -82.2825 353° North 438 504 26,000  Level Indianapolis Center
08:52AM 40.4828 -82.3067 353° North 438 504 26,000  Level Indianapolis Center
08:53AM 40.6047 -82.3397 348° North 440 506 26,000  Level Indianapolis Center
08:54AM 40.7244 -82.3733 348° North 435 501 26,000 -360 Level Indianapolis Center
08:55AM 40.8433 -82.4089 347° North 433 498 25,300 -840 Descending Indianapolis Center
08:56AM 40.9622 -82.4436 348° North 432 497 24,300 -660 Descending Indianapolis Center
08:57AM 41.0800 -82.4786 347° North 427 491 24,000 -180 Descending Indianapolis Center
08:58AM 41.1947 -82.5119 348° North 417 480 24,000  Level Indianapolis Center
08:59AM 41.2953 -82.5714 336° Northwest 398 458 24,000 -300 Level Indianapolis Center
09:00AM 41.3794 -82.6692 319° Northwest 397 457 23,400 -1,860 Descending Indianapolis Center
09:01AM 41.4619 -82.7669 318° Northwest 393 452 20,200 -2,940 Descending Indianapolis Center
09:02AM 41.5394 -82.8561 319° Northwest 372 428 17,400 -2,760 Descending Indianapolis Center